createdAt,value
2019-03-09T00:03:39.503Z,7.93
2019-03-09T00:06:26.353Z,8.93
2019-03-09T00:09:13.169Z,7.37
2019-03-09T00:11:52.958Z,9.47
2019-03-09T00:14:33.209Z,6.43
2019-03-09T00:17:13.325Z,13.73
2019-03-09T00:19:53.269Z,9.30
2019-03-09T00:22:33.422Z,4.40
2019-03-09T00:25:32.808Z,7.57
2019-03-09T00:28:21.283Z,4.27
2019-03-09T00:31:11.833Z,6.23
2019-03-09T00:33:52.099Z,5.53
2019-03-09T00:36:32.091Z,8.73
2019-03-09T00:39:12.321Z,4.20
2019-03-09T00:41:52.238Z,8.63
2019-03-09T00:44:32.299Z,7.43
2019-03-09T00:47:12.155Z,7.43
2019-03-09T00:49:52.098Z,5.10
2019-03-09T00:52:32.124Z,9.03
2019-03-09T00:55:12.267Z,8.77
2019-03-09T00:57:52.231Z,5.43
2019-03-09T01:00:32.229Z,10.60
2019-03-09T01:06:14.015Z,13.73
2019-03-09T01:09:00.832Z,8.43
2019-03-09T01:11:40.673Z,7.47
2019-03-09T01:14:20.729Z,5.17
2019-03-09T01:17:00.729Z,9.87
2019-03-09T01:19:40.953Z,3.77
2019-03-09T01:22:20.804Z,5.53
2019-03-09T01:25:00.795Z,8.23
2019-03-09T01:27:40.822Z,5.00
2019-03-09T01:30:21.122Z,5.37
2019-03-09T01:33:00.977Z,6.17
2019-03-09T01:35:41.103Z,4.70
2019-03-09T01:38:21.424Z,8.73
2019-03-09T01:41:01.703Z,4.57
2019-03-09T01:43:41.879Z,5.20
2019-03-09T01:46:21.795Z,5.77
2019-03-09T01:49:01.885Z,6.70
2019-03-09T01:51:41.894Z,5.13
2019-03-09T01:54:21.909Z,4.63
2019-03-09T01:57:01.896Z,3.43
2019-03-09T01:59:41.986Z,10.97
2019-03-09T02:02:22.078Z,4.23
2019-03-09T02:05:02.160Z,5.57
2019-03-09T02:07:42.125Z,7.30
2019-03-09T02:10:23.033Z,5.53
2019-03-09T02:13:03.224Z,5.70
2019-03-09T02:15:43.115Z,5.60
2019-03-09T02:18:23.078Z,4.37
2019-03-09T02:21:03.212Z,4.03
2019-03-09T02:23:43.429Z,2.20
2019-03-09T02:26:23.307Z,3.17
2019-03-09T02:29:03.219Z,2.77
2019-03-09T02:31:43.110Z,3.77
2019-03-09T02:34:23.110Z,2.03
2019-03-09T02:37:03.313Z,2.23
2019-03-09T02:39:48.398Z,1.63
2019-03-09T02:42:28.476Z,2.10
2019-03-09T02:45:08.486Z,3.43
2019-03-09T02:47:48.468Z,2.17
2019-03-09T02:50:28.473Z,2.10
2019-03-09T02:53:08.399Z,1.13
2019-03-09T02:55:48.384Z,1.10
2019-03-09T02:58:28.361Z,1.23
2019-03-09T03:01:27.832Z,1.83
2019-03-09T03:04:07.455Z,1.27
2019-03-09T03:06:47.605Z,0.70
2019-03-09T03:09:27.510Z,1.87
2019-03-09T03:12:07.656Z,0.63
2019-03-09T03:14:47.319Z,1.00
2019-03-09T03:17:14.571Z,2.33
2019-03-09T03:20:01.423Z,1.43
2019-03-09T03:22:48.157Z,2.83
2019-03-09T03:25:35.018Z,1.63
2019-03-09T03:28:21.871Z,0.63
2019-03-09T03:31:08.716Z,1.73
2019-03-09T03:33:56.308Z,3.00
2019-03-09T03:37:03.120Z,1.77
2019-03-09T03:39:49.951Z,0.77
2019-03-09T03:42:36.814Z,1.67
2019-03-09T03:45:23.607Z,2.67
2019-03-09T03:48:10.442Z,2.43
2019-03-09T03:50:57.149Z,2.70
2019-03-09T03:53:43.901Z,2.03
2019-03-09T03:56:30.739Z,2.07
2019-03-09T03:59:17.573Z,3.17
2019-03-09T04:02:04.365Z,3.20
2019-03-09T04:04:51.331Z,3.10
2019-03-09T04:07:38.639Z,1.30
2019-03-09T04:10:25.489Z,2.20
2019-03-09T04:13:05.268Z,1.20
2019-03-09T04:15:45.265Z,2.20
2019-03-09T04:18:12.520Z,0.53
2019-03-09T04:21:01.796Z,0.80
2019-03-09T04:24:07.894Z,0.40
2019-03-09T04:26:54.710Z,1.27
2019-03-09T04:29:41.534Z,0.30
2019-03-09T04:32:28.462Z,0.37
2019-03-09T04:35:15.297Z,0.67
2019-03-09T04:38:02.126Z,0.30
2019-03-09T04:40:49.148Z,0.30
2019-03-09T04:43:36.029Z,0.20
2019-03-09T04:46:22.897Z,1.03
2019-03-09T04:49:09.710Z,1.67
2019-03-09T04:51:56.540Z,0.70
2019-03-09T04:54:43.249Z,0.40
2019-03-09T04:57:30.081Z,0.93
2019-03-09T05:00:38.180Z,0.63
2019-03-09T05:03:05.506Z,1.03
2019-03-09T05:05:32.825Z,0.20
2019-03-09T05:08:39.157Z,0.40
2019-03-09T05:11:27.921Z,0.80
2019-03-09T05:14:07.864Z,0.57
2019-03-09T05:16:47.973Z,0.60
2019-03-09T05:19:15.238Z,1.03
2019-03-09T05:22:02.065Z,1.40
2019-03-09T05:24:50.191Z,0.70
2019-03-09T05:27:37.029Z,1.73
2019-03-09T05:30:04.598Z,0.80
2019-03-09T05:32:51.505Z,1.73
2019-03-09T05:35:38.394Z,0.83
2019-03-09T05:38:25.227Z,1.23
2019-03-09T05:41:12.058Z,1.20
2019-03-09T05:43:39.421Z,0.97
2019-03-09T05:46:26.161Z,1.27
2019-03-09T05:49:13.265Z,1.70
2019-03-09T05:52:19.601Z,2.73
2019-03-09T05:55:08.487Z,2.30
2019-03-09T05:57:55.395Z,2.97
2019-03-09T06:03:40.327Z,3.33
2019-03-09T06:06:27.260Z,3.30
2019-03-09T06:09:14.190Z,4.30
2019-03-09T06:12:01.017Z,3.07
2019-03-09T06:14:41.467Z,2.93
2019-03-09T06:17:21.599Z,4.20
2019-03-09T06:20:01.623Z,4.60
2019-03-09T06:22:41.697Z,5.87
2019-03-09T06:25:22.050Z,6.40
2019-03-09T06:28:02.034Z,4.33
2019-03-09T06:30:42.255Z,2.57
2019-03-09T06:33:22.527Z,5.57
2019-03-09T06:36:02.615Z,3.43
2019-03-09T06:38:42.781Z,4.20
2019-03-09T06:41:22.837Z,5.40
2019-03-09T06:44:02.788Z,2.67
2019-03-09T06:46:42.818Z,4.07
2019-03-09T06:49:22.762Z,3.13
2019-03-09T06:52:02.544Z,3.10
2019-03-09T06:54:42.500Z,4.43
2019-03-09T06:57:22.652Z,4.80
2019-03-09T07:00:02.656Z,6.90
2019-03-09T07:02:42.470Z,6.23
2019-03-09T07:05:22.483Z,6.73
2019-03-09T07:08:02.766Z,6.57
2019-03-09T07:10:42.660Z,4.53
2019-03-09T07:13:22.740Z,6.03
2019-03-09T07:16:02.657Z,7.43
2019-03-09T07:18:42.606Z,3.33
2019-03-09T07:21:22.638Z,3.70
2019-03-09T07:24:02.706Z,5.97
2019-03-09T07:26:42.559Z,8.83
2019-03-09T07:29:22.820Z,8.70
2019-03-09T07:32:02.800Z,6.80
2019-03-09T07:34:42.824Z,8.80
2019-03-09T07:37:22.782Z,5.73
2019-03-09T07:40:03.057Z,6.60
2019-03-09T07:42:42.954Z,6.07
2019-03-09T07:45:23.087Z,4.43
2019-03-09T07:48:02.992Z,3.77
2019-03-09T07:50:43.127Z,4.63
2019-03-09T07:53:22.959Z,3.90
2019-03-09T07:56:03.025Z,2.57
2019-03-09T07:58:43.099Z,4.90
2019-03-09T08:01:23.993Z,5.13
2019-03-09T08:04:04.368Z,3.93
2019-03-09T08:06:44.263Z,4.63
2019-03-09T08:09:24.683Z,5.30
2019-03-09T08:12:05.257Z,5.10
2019-03-09T08:14:45.081Z,2.90
2019-03-09T08:17:25.249Z,3.13
2019-03-09T08:20:05.391Z,3.73
2019-03-09T08:22:45.431Z,3.70
2019-03-09T08:25:26.272Z,3.20
2019-03-09T08:28:06.342Z,4.17
2019-03-09T08:30:46.585Z,3.47
2019-03-09T08:33:26.640Z,4.37
2019-03-09T08:36:06.567Z,3.33
2019-03-09T08:38:46.582Z,4.97
2019-03-09T08:41:26.675Z,6.47
2019-03-09T08:44:07.716Z,6.17
2019-03-09T08:46:47.440Z,5.23
2019-03-09T08:49:27.336Z,5.83
2019-03-09T08:52:07.157Z,5.10
2019-03-09T08:54:47.183Z,4.33
2019-03-09T08:57:14.408Z,5.97
2019-03-09T08:59:41.817Z,6.30
2019-03-09T09:02:09.161Z,5.67
2019-03-09T09:04:36.557Z,4.93
2019-03-09T09:07:03.933Z,7.73
2019-03-09T09:09:31.226Z,6.83
2019-03-09T09:11:58.453Z,7.77
2019-03-09T09:14:25.761Z,6.67
2019-03-09T09:16:53.123Z,6.80
2019-03-09T09:19:20.371Z,7.40
2019-03-09T09:21:47.579Z,6.00
2019-03-09T09:24:14.808Z,6.57
2019-03-09T09:26:42.244Z,7.70
2019-03-09T09:29:09.561Z,5.50
2019-03-09T09:31:37.646Z,4.10
2019-03-09T09:34:04.953Z,6.37
2019-03-09T09:36:32.749Z,10.37
2019-03-09T09:39:00.057Z,4.33
2019-03-09T09:41:27.283Z,6.30
2019-03-09T09:43:54.646Z,7.37
2019-03-09T09:46:21.999Z,8.53
2019-03-09T09:48:49.467Z,7.73
2019-03-09T09:51:16.761Z,6.93
2019-03-09T09:53:44.089Z,6.50
2019-03-09T09:56:11.437Z,6.07
2019-03-09T09:58:38.788Z,7.30
2019-03-09T10:01:06.133Z,7.43
2019-03-09T10:03:33.476Z,6.83
2019-03-09T10:06:00.798Z,4.33
2019-03-09T10:08:28.041Z,5.57
2019-03-09T10:10:55.357Z,4.90
2019-03-09T10:13:22.680Z,5.70
2019-03-09T10:15:49.997Z,3.30
2019-03-09T10:18:17.357Z,5.90
2019-03-09T10:20:45.090Z,4.87
2019-03-09T10:23:12.551Z,4.33
2019-03-09T10:25:39.938Z,5.23
2019-03-09T10:28:07.282Z,5.50
2019-03-09T10:30:34.624Z,3.97
2019-03-09T10:33:01.927Z,4.13
2019-03-09T10:35:29.156Z,4.20
2019-03-09T10:37:56.440Z,5.13
2019-03-09T10:40:23.783Z,6.50
2019-03-09T10:42:51.102Z,3.00
2019-03-09T10:45:18.497Z,4.80
2019-03-09T10:47:45.866Z,5.73
2019-03-09T10:50:13.116Z,6.07
2019-03-09T10:52:40.328Z,4.80
2019-03-09T10:55:09.462Z,6.80
2019-03-09T10:57:36.796Z,4.33
2019-03-09T11:00:08.197Z,5.13
2019-03-09T11:02:37.613Z,4.53
2019-03-09T11:05:04.865Z,4.37
2019-03-09T11:07:32.196Z,3.60
2019-03-09T11:09:59.566Z,4.23
2019-03-09T11:12:26.904Z,4.87
2019-03-09T11:14:54.269Z,5.43
2019-03-09T11:17:21.758Z,5.20
2019-03-09T11:19:49.038Z,5.97
2019-03-09T11:22:16.292Z,4.63
2019-03-09T11:24:43.548Z,4.30
2019-03-09T11:27:10.860Z,2.33
2019-03-09T11:29:38.190Z,3.43
2019-03-09T11:32:05.427Z,3.80
2019-03-09T11:34:32.757Z,3.13
2019-03-09T11:37:00.090Z,2.13
2019-03-09T11:39:27.490Z,2.93
2019-03-09T11:41:54.928Z,2.80
2019-03-09T11:44:22.298Z,2.60
2019-03-09T11:46:49.664Z,2.70
2019-03-09T11:49:17.011Z,2.90
2019-03-09T11:51:44.350Z,4.53
2019-03-09T11:54:11.686Z,4.03
2019-03-09T11:56:38.945Z,3.73
2019-03-09T11:59:06.296Z,2.57
2019-03-09T12:01:33.656Z,2.50
2019-03-09T12:04:00.916Z,2.87
2019-03-09T12:06:28.252Z,3.53
2019-03-09T12:08:55.633Z,1.50
2019-03-09T12:11:22.961Z,2.70
2019-03-09T12:13:50.293Z,3.17
2019-03-09T12:16:17.681Z,3.37
2019-03-09T12:18:45.041Z,2.33
2019-03-09T12:21:12.402Z,3.20
2019-03-09T12:23:39.739Z,2.23
2019-03-09T12:26:07.060Z,2.83
2019-03-09T12:28:34.291Z,1.47
2019-03-09T12:31:01.654Z,2.63
2019-03-09T12:33:29.007Z,2.50
2019-03-09T12:35:56.413Z,2.30
2019-03-09T12:38:23.744Z,1.10
2019-03-09T12:40:51.061Z,2.97
2019-03-09T12:43:18.392Z,3.57
2019-03-09T12:45:45.719Z,2.33
2019-03-09T12:48:13.095Z,4.03
2019-03-09T12:50:40.293Z,1.23
2019-03-09T12:53:07.532Z,1.37
2019-03-09T12:55:34.825Z,3.00
2019-03-09T12:58:02.116Z,2.93
2019-03-09T13:00:29.329Z,1.57
2019-03-09T13:02:56.639Z,2.10
2019-03-09T13:05:23.845Z,2.23
2019-03-09T13:07:51.059Z,1.60
2019-03-09T13:10:18.298Z,6.77
2019-03-09T13:12:45.613Z,1.57
2019-03-09T13:15:13.769Z,1.90
2019-03-09T13:17:40.986Z,1.80
2019-03-09T13:20:08.615Z,2.50
2019-03-09T13:22:35.938Z,2.93
2019-03-09T13:25:03.616Z,2.37
2019-03-09T13:27:30.904Z,2.33
2019-03-09T13:29:58.228Z,6.40
2019-03-09T13:32:25.538Z,2.47
2019-03-09T13:34:55.741Z,6.17
2019-03-09T13:37:23.072Z,6.27
2019-03-09T13:39:50.366Z,5.57
2019-03-09T13:42:17.769Z,7.40
2019-03-09T13:44:45.063Z,7.47
2019-03-09T13:47:12.285Z,3.70
2019-03-09T13:49:39.524Z,9.57
2019-03-09T13:52:06.785Z,9.77
2019-03-09T13:54:34.025Z,19.93
2019-03-09T13:57:01.397Z,12.83
2019-03-09T13:59:28.605Z,11.60
2019-03-09T14:01:55.896Z,16.77
2019-03-09T14:04:23.131Z,15.30
2019-03-09T14:06:50.472Z,12.43
2019-03-09T14:09:17.811Z,16.70
2019-03-09T14:11:45.205Z,14.13
2019-03-09T14:14:12.618Z,7.67
2019-03-09T14:16:40.075Z,14.03
2019-03-09T14:19:07.580Z,14.93
2019-03-09T14:21:34.906Z,15.10
2019-03-09T14:24:02.291Z,21.67
2019-03-09T14:26:29.637Z,21.20
2019-03-09T14:28:56.933Z,20.13
2019-03-09T14:31:24.121Z,18.57
2019-03-09T14:33:51.497Z,17.80
2019-03-09T14:36:18.819Z,18.90
2019-03-09T14:38:46.180Z,27.40
2019-03-09T14:41:13.481Z,20.57
2019-03-09T14:43:40.813Z,19.40
2019-03-09T14:46:08.048Z,22.00
2019-03-09T14:48:35.398Z,27.73
2019-03-09T14:51:02.742Z,26.13
2019-03-09T14:53:30.071Z,23.97
2019-03-09T14:55:57.401Z,17.33
2019-03-09T14:58:24.602Z,21.90
2019-03-09T15:00:52.019Z,23.13
2019-03-09T15:03:19.410Z,18.60
2019-03-09T15:05:46.759Z,22.40
2019-03-09T15:08:14.125Z,20.53
2019-03-09T15:10:41.554Z,22.47
2019-03-09T15:13:08.969Z,25.70
2019-03-09T15:15:36.379Z,23.27
2019-03-09T15:18:03.620Z,25.10
2019-03-09T15:20:30.868Z,25.33
2019-03-09T15:22:58.260Z,33.50
2019-03-09T15:25:25.602Z,26.20
2019-03-09T15:27:52.955Z,20.87
2019-03-09T15:30:20.238Z,25.10
2019-03-09T15:32:47.581Z,25.17
2019-03-09T15:35:15.184Z,23.33
2019-03-09T15:37:42.511Z,20.37
2019-03-09T15:40:10.184Z,25.70
2019-03-09T15:42:37.568Z,19.10
2019-03-09T15:45:05.279Z,20.87
2019-03-09T15:47:32.705Z,18.60
2019-03-09T15:50:00.166Z,26.20
2019-03-09T15:52:27.643Z,21.93
2019-03-09T15:54:55.077Z,22.47
2019-03-09T15:57:22.316Z,19.93
2019-03-09T15:59:49.936Z,20.20
2019-03-09T16:02:17.258Z,19.27
2019-03-09T16:04:44.584Z,18.63
2019-03-09T16:07:11.791Z,17.70
2019-03-09T16:09:39.116Z,18.73
2019-03-09T16:12:06.492Z,21.13
2019-03-09T16:14:33.762Z,23.70
2019-03-09T16:17:05.337Z,15.33
2019-03-09T16:19:32.652Z,16.03
2019-03-09T16:21:59.964Z,15.53
2019-03-09T16:24:27.278Z,17.80
2019-03-09T16:26:54.604Z,24.67
2019-03-09T16:29:21.817Z,17.47
2019-03-09T16:31:49.056Z,22.57
2019-03-09T16:34:16.312Z,15.97
2019-03-09T16:36:43.640Z,28.00
2019-03-09T16:39:10.860Z,24.37
2019-03-09T16:41:38.186Z,16.67
2019-03-09T16:44:05.502Z,16.17
2019-03-09T16:46:32.712Z,19.70
2019-03-09T16:49:00.054Z,16.67
2019-03-09T16:51:27.405Z,18.73
2019-03-09T16:53:54.604Z,16.97
2019-03-09T16:56:21.812Z,20.40
2019-03-09T16:58:49.117Z,19.90
2019-03-09T17:01:16.516Z,18.27
2019-03-09T17:03:43.851Z,13.53
2019-03-09T17:06:11.182Z,16.87
2019-03-09T17:08:38.580Z,9.77
2019-03-09T17:11:06.033Z,17.27
2019-03-09T17:13:33.342Z,14.70
2019-03-09T17:16:00.672Z,16.57
2019-03-09T17:18:28.034Z,12.60
2019-03-09T17:20:56.819Z,11.33
2019-03-09T17:23:24.186Z,12.13
2019-03-09T17:25:51.762Z,10.10
2019-03-09T17:28:19.074Z,10.47
2019-03-09T17:30:46.340Z,12.63
2019-03-09T17:33:13.674Z,10.73
2019-03-09T17:35:40.880Z,8.17
2019-03-09T17:38:08.223Z,12.00
2019-03-09T17:40:35.516Z,11.53
2019-03-09T17:43:02.897Z,10.90
2019-03-09T17:45:30.233Z,11.40
2019-03-09T17:47:57.564Z,10.33
2019-03-09T17:50:24.886Z,8.33
2019-03-09T17:52:52.206Z,8.20
2019-03-09T17:55:19.562Z,10.43
2019-03-09T17:57:46.995Z,8.83
2019-03-09T18:00:16.578Z,10.97
2019-03-09T18:02:43.822Z,9.27
2019-03-09T18:05:11.153Z,10.07
2019-03-09T18:07:38.497Z,9.50
2019-03-09T18:10:09.725Z,12.80
2019-03-09T18:12:37.149Z,11.57
2019-03-09T18:15:04.776Z,11.73
2019-03-09T18:17:32.125Z,12.00
2019-03-09T18:19:59.504Z,16.03
2019-03-09T18:22:26.848Z,11.00
2019-03-09T18:24:54.182Z,15.97
2019-03-09T18:27:21.550Z,10.93
2019-03-09T18:29:48.894Z,14.60
2019-03-09T18:32:16.242Z,12.90
2019-03-09T18:34:43.607Z,16.53
2019-03-09T18:37:10.918Z,12.53
2019-03-09T18:39:38.254Z,12.47
2019-03-09T18:42:05.588Z,9.87
2019-03-09T18:44:32.919Z,14.70
2019-03-09T18:47:00.270Z,14.33
2019-03-09T18:49:27.637Z,12.97
2019-03-09T18:51:55.050Z,14.70
2019-03-09T18:54:22.372Z,9.47
2019-03-09T18:56:52.594Z,10.20
2019-03-09T18:59:19.938Z,11.33
2019-03-09T19:01:47.318Z,12.40
2019-03-09T19:04:14.656Z,13.57
2019-03-09T19:06:42.009Z,13.70
2019-03-09T19:09:09.642Z,15.87
2019-03-09T19:11:36.993Z,11.90
2019-03-09T19:14:04.329Z,15.00
2019-03-09T19:16:31.694Z,14.20
2019-03-09T19:18:59.355Z,11.73
2019-03-09T19:21:26.734Z,14.30
2019-03-09T19:23:54.109Z,13.03
2019-03-09T19:26:21.497Z,12.10
2019-03-09T19:28:48.723Z,11.13
2019-03-09T19:31:16.076Z,13.03
2019-03-09T19:33:43.417Z,11.20
2019-03-09T19:36:10.761Z,13.27
2019-03-09T19:38:39.317Z,10.32
2019-03-09T19:41:06.736Z,11.83
2019-03-09T19:43:34.153Z,13.10
2019-03-09T19:46:01.650Z,9.10
2019-03-09T19:48:29.016Z,9.97
2019-03-09T19:50:56.347Z,11.20
2019-03-09T19:53:23.734Z,9.27
2019-03-09T19:55:51.123Z,10.67
2019-03-09T19:58:18.562Z,10.37
2019-03-09T20:00:45.919Z,9.83
2019-03-09T20:03:13.253Z,11.10
2019-03-09T20:05:40.634Z,9.00
2019-03-09T20:08:08.066Z,10.57
2019-03-09T20:10:35.436Z,14.80
2019-03-09T20:13:02.815Z,9.93
2019-03-09T20:15:30.174Z,8.43
2019-03-09T20:17:57.454Z,10.33
2019-03-09T20:20:26.314Z,11.60
2019-03-09T20:22:53.717Z,11.23
2019-03-09T20:25:21.090Z,12.70
2019-03-09T20:27:48.488Z,12.13
2019-03-09T20:30:16.183Z,11.43
2019-03-09T20:32:43.542Z,11.07
2019-03-09T20:35:10.930Z,10.87
2019-03-09T20:37:38.282Z,7.07
2019-03-09T20:40:06.272Z,10.87
2019-03-09T20:42:33.642Z,8.97
2019-03-09T20:45:01.122Z,7.80
2019-03-09T20:47:28.474Z,8.47
2019-03-09T20:49:56.282Z,8.13
2019-03-09T20:52:23.759Z,10.10
2019-03-09T20:54:51.228Z,9.30
2019-03-09T20:57:18.599Z,15.57
2019-03-09T20:59:45.906Z,10.67
2019-03-09T21:02:13.258Z,6.67
2019-03-09T21:04:40.560Z,9.37
2019-03-09T21:07:07.946Z,8.57
2019-03-09T21:09:35.378Z,9.27
2019-03-09T21:12:02.736Z,11.00
2019-03-09T21:14:30.118Z,9.90
2019-03-09T21:16:59.678Z,12.40
2019-03-09T21:19:26.760Z,12.33
2019-03-09T21:21:54.144Z,9.57
2019-03-09T21:24:21.503Z,10.70
2019-03-09T21:26:48.881Z,12.80
2019-03-09T21:29:16.280Z,17.77
2019-03-09T21:31:43.665Z,12.77
2019-03-09T21:34:11.293Z,12.13
2019-03-09T21:36:38.645Z,19.27
2019-03-09T21:39:06.729Z,18.83
2019-03-09T21:41:33.987Z,20.03
2019-03-09T21:44:01.317Z,19.93
2019-03-09T21:46:28.531Z,18.53
2019-03-09T21:48:55.888Z,23.33
2019-03-09T21:51:23.114Z,18.63
2019-03-09T21:53:50.339Z,20.37
2019-03-09T21:56:17.706Z,24.40
2019-03-09T21:58:45.021Z,23.93
2019-03-09T22:01:12.426Z,25.57
2019-03-09T22:03:39.803Z,25.83
2019-03-09T22:06:07.226Z,23.70
2019-03-09T22:08:34.873Z,23.43
2019-03-09T22:11:02.230Z,26.23
2019-03-09T22:13:29.731Z,29.43
2019-03-09T22:15:57.032Z,19.97
2019-03-09T22:18:24.271Z,23.13
2019-03-09T22:20:51.605Z,24.30
2019-03-09T22:23:18.874Z,22.83
2019-03-09T22:25:46.241Z,25.97
2019-03-09T22:28:13.601Z,24.17
2019-03-09T22:30:40.957Z,32.90
2019-03-09T22:33:08.261Z,27.67
2019-03-09T22:35:35.597Z,30.00
2019-03-09T22:38:02.969Z,31.43
2019-03-09T22:40:30.225Z,34.63
2019-03-09T22:42:57.561Z,31.80
2019-03-09T22:45:24.889Z,36.87
2019-03-09T22:47:52.245Z,35.57
2019-03-09T22:50:19.589Z,35.73
2019-03-09T22:52:46.889Z,37.53
2019-03-09T22:55:14.128Z,37.30
2019-03-09T22:57:41.547Z,37.90
2019-03-09T23:00:11.485Z,37.70
2019-03-09T23:02:38.728Z,36.37
2019-03-09T23:05:06.449Z,37.07
2019-03-09T23:07:33.782Z,40.83
2019-03-09T23:10:01.039Z,42.23
2019-03-09T23:12:28.453Z,38.47
2019-03-09T23:14:55.837Z,35.30
2019-03-09T23:17:23.203Z,44.30
2019-03-09T23:19:50.426Z,32.27
2019-03-09T23:22:17.780Z,32.07
2019-03-09T23:24:45.136Z,32.13
2019-03-09T23:27:12.469Z,39.63
2019-03-09T23:29:39.789Z,36.63
2019-03-09T23:32:07.240Z,38.33
2019-03-09T23:34:34.628Z,37.77
2019-03-09T23:37:01.947Z,40.20
2019-03-09T23:39:29.264Z,38.43
2019-03-09T23:41:56.653Z,39.77
2019-03-09T23:44:24.019Z,41.93
2019-03-09T23:46:51.239Z,36.40
2019-03-09T23:49:18.704Z,40.60
2019-03-09T23:51:45.926Z,39.93
2019-03-09T23:54:13.212Z,35.23
2019-03-09T23:56:40.441Z,35.30
2019-03-09T23:59:07.780Z,34.43
